METAR AND TAF INFORMATION
METAR FOR GCFV
ADDS - METARS form results

(1541 UTC 24 September 2022)
Data provider http://aviationweather.gov/metar/data/
 
METAR text: GCFV 241530Z 06013KT 9999 FEW022 BKN040 24/21 Q1016
Conditions at: GCFV (FUERTEVENTURA AR, ES) observed 1530 UTC 24 September 2022
Temperature: 24.0°C (75°F)
Dewpoint: 21.0°C (70°F) [RH = 83%]
Pressure (altimeter): 30.00 inches Hg (1016.0 mb)
Winds: from the ENE (60 degrees) at 15 MPH (13 knots; 6.7 m/s)
Visibility: 6 or more miles (10+ km)
Ceiling: 4000 feet AGL
Clouds: few clouds at 2200 feet AGL
broken clouds at 4000 feet AGL
Weather: no significant weather observed at this time

METAR text: GCFV 241500Z 05013KT 9999 DZ FEW022 SCT040 25/21 Q1016
Conditions at: GCFV (FUERTEVENTURA AR, ES) observed 1500 UTC 24 September 2022
Temperature: 25.0°C (77°F)
Dewpoint: 21.0°C (70°F) [RH = 79%]
Pressure (altimeter): 30.00 inches Hg (1016.0 mb)
Winds: from the NE (50 degrees) at 15 MPH (13 knots; 6.7 m/s)
Visibility: 6 or more miles (10+ km)
Ceiling: at least 12,000 feet AGL
Clouds: few clouds at 2200 feet AGL
scattered clouds at 4000 feet AGL
Weather: DZ  (moderate drizzle)

Forecast for: GCFV (FUERTEVENTURA AR, ES)
Text: TAF GCFV 241400Z 2415/2515 04011KT 9999 SCT025 TX26/2514Z TN22/2506Z
Forecast period: 1500 UTC 24 September 2022 to 1500 UTC 25 September 2022
Forecast type: FROM: standard forecast or significant change
Winds: from the NE (40 degrees) at 13 MPH (11 knots; 5.7 m/s)
Visibility: 6 or more miles (10+ km)
Ceiling: at least 12,000 feet AGL
Clouds: scattered clouds at 2500 feet AGL
Weather: no significant weather forecast for this period
Text: PROB40
Forecast period: 1500 UTC 24 September 2022 to 0300 UTC 25 September 2022
Forecast type: TEMPORARY: The following changes expected for less than half the time period
Visibility: missing
Ceiling: unknown
Clouds: missing
Weather: RA  (moderate rain)
Text: TEMPO 2415/2503 RA
Forecast period: 0300 to 1500 UTC 25 September 2022
Forecast type: TEMPORARY: The following changes expected for less than half the time period
Visibility: 2.49 miles (4.01 km)
Ceiling: at least 12,000 feet AGL
Clouds: scattered clouds at 3000 feet AGL
Weather: RA  (moderate rain)

 AIRPORT MAP

 RUNWAY INFORMATION
Runway 01 Runway length 7874 ft Runway width 148 ft
Runway elevation 37 ft Runway displaced threshold 0 ft Runway heading 2
Runway 19 Runway length 7874 ft Runway width 148 ft
Runway elevation 75 ft Runway displaced threshold 0 ft Runway heading 182

 AIRPORT FREQUENCIES
Type APP Name CANARIAS A Frequency 129.3 MHZ
Type ATIS Name ATIS Frequency 118.65 MHZ
Type GND Name GND Frequency 121.7 MHZ
Type TWR Name TWR Frequency 118.5 MHZ

 AIRPORT NEAR NAVIGATION AIDS
Type VOR-DME Name Fuerteventura Frequency 114100 KHZ